createdAt,value
2022-09-24T00:02:28.938Z,8.85
2022-09-24T00:04:57.702Z,7.78
2022-09-24T00:07:26.215Z,8.07
2022-09-24T00:09:54.885Z,6.70
2022-09-24T00:12:23.419Z,8.05
2022-09-24T00:14:51.996Z,8.25
2022-09-24T00:17:20.707Z,8.00
2022-09-24T00:19:50.628Z,8.77
2022-09-24T00:22:19.271Z,7.13
2022-09-24T00:25:05.597Z,5.95
2022-09-24T00:27:34.214Z,8.13
2022-09-24T00:30:02.822Z,6.82
2022-09-24T00:32:31.366Z,7.47
2022-09-24T00:35:01.258Z,7.30
2022-09-24T00:37:29.840Z,8.30
2022-09-24T00:39:58.366Z,7.38
2022-09-24T00:42:29.581Z,7.15
2022-09-24T00:44:58.247Z,8.15
2022-09-24T00:47:28.940Z,8.73
2022-09-24T00:50:00.708Z,10.17
2022-09-24T00:52:30.639Z,6.50
2022-09-24T00:54:59.291Z,6.45
2022-09-24T00:57:28.408Z,6.75
2022-09-24T00:59:57.011Z,7.05
2022-09-24T01:02:25.734Z,7.88
2022-09-24T01:04:56.578Z,6.70
2022-09-24T01:07:26.021Z,7.47
2022-09-24T01:09:56.117Z,6.70
2022-09-24T01:12:28.354Z,7.20
2022-09-24T01:15:02.445Z,5.78
2022-09-24T01:17:33.729Z,5.55
2022-09-24T01:20:25.066Z,5.60
2022-09-24T01:23:01.044Z,6.13
2022-09-24T01:25:36.975Z,7.30
2022-09-24T01:28:13.119Z,5.90
2022-09-24T01:30:44.078Z,5.47
2022-09-24T01:33:14.949Z,6.35
2022-09-24T01:35:45.018Z,5.40
2022-09-24T01:38:16.209Z,4.95
2022-09-24T01:40:45.663Z,5.95
2022-09-24T01:43:14.600Z,5.90
2022-09-24T01:45:44.960Z,5.57
2022-09-24T01:48:13.754Z,5.25
2022-09-24T01:50:44.487Z,6.85
2022-09-24T01:53:16.111Z,7.70
2022-09-24T01:58:16.910Z,5.55
2022-09-24T02:00:49.510Z,5.07
2022-09-24T02:03:21.206Z,4.32
2022-09-24T02:08:20.721Z,5.53
2022-09-24T02:10:53.377Z,6.63
2022-09-24T02:13:24.672Z,4.85
2022-09-24T02:15:58.038Z,6.00
2022-09-24T02:18:30.184Z,4.50
2022-09-24T02:21:01.047Z,5.53
2022-09-24T02:23:30.314Z,5.57
2022-09-24T02:26:02.851Z,8.30
2022-09-24T02:28:32.425Z,6.30
2022-09-24T02:31:04.561Z,6.10
2022-09-24T02:33:51.567Z,4.25
2022-09-24T02:36:20.239Z,5.95
2022-09-24T02:38:48.768Z,3.83
2022-09-24T02:41:17.385Z,5.45
2022-09-24T02:43:46.090Z,5.10
2022-09-24T02:46:16.146Z,5.63
2022-09-24T02:48:44.756Z,4.55
2022-09-24T02:51:13.312Z,8.35
2022-09-24T02:53:41.904Z,5.82
2022-09-24T02:56:11.261Z,5.05
2022-09-24T02:58:39.797Z,4.80
2022-09-24T03:01:08.556Z,6.07
2022-09-24T03:03:38.514Z,5.82
2022-09-24T03:06:07.298Z,4.13
2022-09-24T03:08:35.868Z,5.82
2022-09-24T03:11:04.447Z,5.72
2022-09-24T03:13:32.940Z,4.85
2022-09-24T03:16:01.581Z,6.85
2022-09-24T03:18:30.146Z,5.40
2022-09-24T03:21:00.826Z,5.95
2022-09-24T03:23:29.552Z,5.85
2022-09-24T03:25:59.008Z,6.18
2022-09-24T03:28:27.752Z,6.82
2022-09-24T03:31:01.433Z,8.05
2022-09-24T03:33:31.081Z,4.45
2022-09-24T03:36:02.089Z,6.00
2022-09-24T03:38:31.393Z,6.00
2022-09-24T03:41:00.361Z,5.20
2022-09-24T03:43:29.212Z,4.75
2022-09-24T03:45:57.767Z,5.57
2022-09-24T03:48:26.824Z,4.88
2022-09-24T03:50:55.799Z,4.47
2022-09-24T03:53:25.694Z,4.43
2022-09-24T03:55:58.079Z,4.65
2022-09-24T03:58:26.742Z,5.38
2022-09-24T04:00:55.294Z,5.82
2022-09-24T04:03:24.258Z,6.13
2022-09-24T04:05:53.093Z,4.78
2022-09-24T04:08:21.768Z,4.75
2022-09-24T04:10:52.060Z,6.53
2022-09-24T04:13:21.253Z,4.78
2022-09-24T04:15:50.338Z,4.65
2022-09-24T04:18:19.700Z,6.65
2022-09-24T04:20:48.208Z,5.40
2022-09-24T04:23:17.234Z,5.07
2022-09-24T04:25:45.903Z,5.40
2022-09-24T04:28:15.877Z,4.47
2022-09-24T04:30:44.476Z,4.18
2022-09-24T04:33:13.428Z,6.00
2022-09-24T04:35:41.987Z,4.75
2022-09-24T04:38:11.290Z,5.55
2022-09-24T04:40:40.150Z,4.40
2022-09-24T04:43:08.986Z,4.32
2022-09-24T04:45:38.964Z,4.57
2022-09-24T04:48:07.687Z,4.88
2022-09-24T04:50:36.271Z,5.22
2022-09-24T04:53:04.882Z,4.60
2022-09-24T04:55:33.405Z,5.93
2022-09-24T04:58:02.062Z,6.28
2022-09-24T05:00:33.499Z,5.22
2022-09-24T05:03:04.843Z,6.15
2022-09-24T05:05:33.623Z,6.57
2022-09-24T05:08:02.433Z,3.85
2022-09-24T05:10:33.237Z,4.60
2022-09-24T05:13:02.309Z,5.03
2022-09-24T05:15:30.999Z,7.15
2022-09-24T05:17:59.715Z,3.83
2022-09-24T05:20:29.690Z,4.68
2022-09-24T05:22:58.239Z,5.45
2022-09-24T05:25:26.760Z,5.20
2022-09-24T05:27:55.227Z,5.80
2022-09-24T05:30:24.420Z,4.80
2022-09-24T05:32:53.146Z,5.22
2022-09-24T05:35:22.816Z,3.80
2022-09-24T05:37:53.715Z,4.30
2022-09-24T05:40:41.027Z,4.38
2022-09-24T05:43:10.052Z,6.47
2022-09-24T05:45:38.639Z,5.43
2022-09-24T05:48:07.411Z,4.20
2022-09-24T05:50:35.998Z,4.97
2022-09-24T05:53:06.891Z,4.00
2022-09-24T05:55:35.678Z,5.35
2022-09-24T05:58:05.098Z,7.18
2022-09-24T06:00:33.670Z,4.45
2022-09-24T06:03:06.725Z,5.30
2022-09-24T06:05:36.001Z,5.57
2022-09-24T06:08:06.187Z,5.20
2022-09-24T06:10:34.754Z,4.55
2022-09-24T06:13:04.033Z,6.05
2022-09-24T06:15:32.944Z,6.15
2022-09-24T06:18:01.480Z,4.93
2022-09-24T06:20:29.997Z,4.97
2022-09-24T06:22:58.943Z,5.60
2022-09-24T06:25:29.067Z,4.20
2022-09-24T06:28:00.725Z,5.95
2022-09-24T06:30:30.067Z,6.65
2022-09-24T06:33:03.247Z,5.05
2022-09-24T06:35:31.836Z,4.28
2022-09-24T06:38:00.396Z,5.20
2022-09-24T06:40:35.662Z,5.10
2022-09-24T06:43:05.375Z,4.10
2022-09-24T06:45:34.171Z,3.72
2022-09-24T06:48:03.658Z,5.03
2022-09-24T06:50:34.526Z,3.90
2022-09-24T06:53:06.559Z,6.78
2022-09-24T06:55:37.001Z,7.38
2022-09-24T06:58:06.504Z,6.57
2022-09-24T07:00:35.231Z,6.63
2022-09-24T07:03:03.856Z,5.03
2022-09-24T07:05:32.702Z,4.80
2022-09-24T07:08:01.336Z,3.97
2022-09-24T07:10:29.858Z,4.90
2022-09-24T07:12:59.740Z,6.32
2022-09-24T07:15:28.309Z,5.32
2022-09-24T07:17:57.332Z,5.57
2022-09-24T07:20:28.212Z,6.18
2022-09-24T07:22:57.022Z,6.65
2022-09-24T07:25:25.655Z,6.63
2022-09-24T07:27:54.205Z,5.90
2022-09-24T07:30:24.190Z,5.55
2022-09-24T07:32:56.478Z,5.43
2022-09-24T07:35:25.465Z,4.65
2022-09-24T07:38:00.774Z,6.22
2022-09-24T07:40:29.974Z,5.18
2022-09-24T07:42:58.559Z,5.85
2022-09-24T07:45:29.881Z,4.78
2022-09-24T07:47:59.806Z,5.35
2022-09-24T07:50:28.600Z,5.60
2022-09-24T07:52:57.481Z,4.47
2022-09-24T07:55:26.145Z,6.47
2022-09-24T07:57:57.504Z,6.13
2022-09-24T08:00:27.715Z,4.60
2022-09-24T08:02:56.558Z,5.07
2022-09-24T08:05:25.475Z,6.15
2022-09-24T08:07:55.871Z,5.40
2022-09-24T08:10:24.482Z,5.85
2022-09-24T08:12:52.699Z,7.95
2022-09-24T08:15:22.767Z,6.35
2022-09-24T08:17:53.134Z,6.90
2022-09-24T08:20:23.508Z,5.75
2022-09-24T08:22:51.758Z,5.38
2022-09-24T08:25:19.987Z,5.97
2022-09-24T08:27:48.276Z,5.45
2022-09-24T08:30:16.751Z,6.47
2022-09-24T08:32:48.301Z,6.47
2022-09-24T08:35:18.744Z,6.22
2022-09-24T08:37:47.001Z,5.57
2022-09-24T08:40:20.223Z,6.43
2022-09-24T08:42:54.130Z,9.23
2022-09-24T08:45:39.926Z,4.93
2022-09-24T08:48:14.871Z,5.20
2022-09-24T08:50:49.549Z,5.97
2022-09-24T08:53:23.674Z,4.75
2022-09-24T08:55:55.342Z,5.38
2022-09-24T09:01:04.562Z,5.18
2022-09-24T09:03:37.669Z,5.53
2022-09-24T09:06:14.189Z,5.30
2022-09-24T09:09:06.442Z,10.85
2022-09-24T09:11:38.068Z,19.05
2022-09-24T09:14:12.065Z,40.22
2022-09-24T09:16:47.662Z,24.52
2022-09-24T09:19:18.815Z,13.75
2022-09-24T09:21:54.453Z,12.80
2022-09-24T09:24:27.780Z,12.75
2022-09-24T09:26:58.358Z,12.27
2022-09-24T09:29:28.870Z,11.55
2022-09-24T09:32:07.045Z,8.48
2022-09-24T09:34:50.649Z,10.93
2022-09-24T09:37:28.161Z,8.00
2022-09-24T09:40:10.010Z,10.18
2022-09-24T09:42:40.467Z,9.10
2022-09-24T09:45:27.964Z,7.38
2022-09-24T09:47:58.246Z,7.80
2022-09-24T09:50:29.278Z,7.65
2022-09-24T09:52:59.028Z,7.78
2022-09-24T09:55:31.255Z,9.52
2022-09-24T09:58:12.094Z,9.65
2022-09-24T10:00:40.404Z,8.38
2022-09-24T10:03:25.117Z,7.47
2022-09-24T10:05:56.147Z,10.23
2022-09-24T10:08:26.696Z,7.05
2022-09-24T10:10:58.715Z,7.68
2022-09-24T10:13:28.599Z,6.55
2022-09-24T10:15:58.897Z,5.57
2022-09-24T10:18:32.808Z,7.93
2022-09-24T10:21:04.219Z,6.15
2022-09-24T10:23:38.936Z,6.90
2022-09-24T10:26:08.985Z,7.65
2022-09-24T10:29:05.897Z,10.13
2022-09-24T10:31:38.502Z,7.20
2022-09-24T10:34:23.531Z,6.80
2022-09-24T10:36:52.715Z,7.45
2022-09-24T10:39:23.042Z,8.20
2022-09-24T10:41:53.048Z,8.93
2022-09-24T10:44:23.170Z,9.32
2022-09-24T10:47:01.773Z,8.45
2022-09-24T10:49:42.201Z,9.85
2022-09-24T10:52:26.607Z,10.25
2022-09-24T10:55:03.791Z,9.57
2022-09-24T10:57:39.656Z,8.85
2022-09-24T11:00:15.520Z,9.00
2022-09-24T11:03:01.937Z,9.27
2022-09-24T11:05:34.661Z,7.20
2022-09-24T11:08:11.124Z,7.90
2022-09-24T11:11:04.784Z,7.60
2022-09-24T11:13:41.579Z,7.05
2022-09-24T11:16:55.012Z,7.85
2022-09-24T11:19:39.568Z,6.07
2022-09-24T11:22:14.021Z,7.05
2022-09-24T11:25:13.979Z,6.32
2022-09-24T11:28:02.080Z,8.40
2022-09-24T11:30:39.267Z,8.57
2022-09-24T11:33:26.289Z,7.03
2022-09-24T11:36:28.015Z,7.75
2022-09-24T11:39:10.478Z,8.13
2022-09-24T11:41:49.821Z,12.63
2022-09-24T11:44:47.813Z,9.52
2022-09-24T11:47:32.198Z,11.50
2022-09-24T11:50:25.540Z,8.70
2022-09-24T11:52:58.566Z,7.38
2022-09-24T11:55:34.230Z,8.65
2022-09-24T11:58:12.196Z,7.53
2022-09-24T12:00:47.350Z,8.43
2022-09-24T12:03:25.935Z,7.97
2022-09-24T12:06:01.285Z,7.78
2022-09-24T12:08:36.399Z,6.85
2022-09-24T12:11:10.527Z,8.77
2022-09-24T12:13:42.420Z,9.25
2022-09-24T12:16:15.252Z,7.32
2022-09-24T12:18:51.556Z,7.40
2022-09-24T12:21:23.471Z,9.63
2022-09-24T12:24:02.184Z,8.60
2022-09-24T12:26:32.243Z,9.43
2022-09-24T12:29:20.972Z,8.25
2022-09-24T12:32:13.348Z,8.07
2022-09-24T12:34:51.974Z,9.45
2022-09-24T12:37:24.974Z,9.05
2022-09-24T12:40:01.432Z,10.27
2022-09-24T12:42:35.362Z,8.95
2022-09-24T12:45:05.704Z,8.70
2022-09-24T12:47:39.065Z,9.13
2022-09-24T12:50:21.957Z,9.73
2022-09-24T12:52:50.370Z,9.55
2022-09-24T12:55:24.148Z,8.20
2022-09-24T12:57:55.099Z,8.48
2022-09-24T13:00:41.129Z,10.15
2022-09-24T13:03:33.991Z,8.32
2022-09-24T13:06:04.586Z,9.43
2022-09-24T13:08:40.729Z,9.05
2022-09-24T13:11:26.735Z,7.93
2022-09-24T13:14:18.322Z,7.78
2022-09-24T13:16:50.461Z,8.73
2022-09-24T13:19:31.530Z,8.77
2022-09-24T13:22:02.233Z,8.10
2022-09-24T13:24:36.201Z,8.80
2022-09-24T13:27:21.958Z,8.73
2022-09-24T13:30:03.661Z,9.80
2022-09-24T13:32:37.879Z,8.13
2022-09-24T13:35:21.017Z,8.15
2022-09-24T13:37:57.328Z,10.00
2022-09-24T13:40:29.368Z,9.15
2022-09-24T13:43:04.209Z,8.10
2022-09-24T13:45:35.069Z,8.45
2022-09-24T13:48:06.014Z,8.18
2022-09-24T13:50:37.618Z,8.73
2022-09-24T13:55:40.794Z,8.48
2022-09-24T13:58:28.107Z,7.72
2022-09-24T14:00:58.357Z,7.88
2022-09-24T14:03:29.764Z,6.88
2022-09-24T14:05:58.236Z,8.43
2022-09-24T14:08:30.043Z,8.13
2022-09-24T14:11:09.760Z,8.27
2022-09-24T14:13:45.996Z,7.85
2022-09-24T14:16:17.988Z,7.47
2022-09-24T14:18:46.542Z,8.18
2022-09-24T14:21:21.144Z,8.27
2022-09-24T14:23:56.890Z,7.43
2022-09-24T14:26:30.905Z,7.38
2022-09-24T14:29:01.181Z,7.72
2022-09-24T14:31:29.800Z,8.73
2022-09-24T14:34:00.301Z,6.80
2022-09-24T14:36:29.381Z,8.57
2022-09-24T14:39:03.354Z,6.60
2022-09-24T14:41:35.350Z,6.63
2022-09-24T14:44:08.911Z,8.45
2022-09-24T14:46:49.576Z,8.05
2022-09-24T14:49:21.491Z,7.65
2022-09-24T14:51:55.019Z,7.43
2022-09-24T14:54:33.448Z,6.95
2022-09-24T14:57:12.518Z,7.45
2022-09-24T14:59:42.891Z,8.70
2022-09-24T15:02:19.183Z,9.77
2022-09-24T15:04:49.349Z,8.82
2022-09-24T15:07:19.998Z,11.45
2022-09-24T15:09:53.658Z,7.63
2022-09-24T15:12:25.218Z,8.90
2022-09-24T15:14:59.351Z,7.47
2022-09-24T15:17:32.220Z,10.07
2022-09-24T15:20:00.528Z,10.75
2022-09-24T15:22:30.082Z,8.93
2022-09-24T15:25:02.309Z,10.65
2022-09-24T15:27:32.625Z,6.82
2022-09-24T15:30:04.845Z,7.13
2022-09-24T15:32:35.167Z,7.82
2022-09-24T15:35:08.625Z,7.80
2022-09-24T15:37:40.262Z,8.73
2022-09-24T15:40:17.341Z,6.55
2022-09-24T15:42:45.588Z,6.25
2022-09-24T15:45:18.272Z,7.35
2022-09-24T15:47:46.996Z,7.68
2022-09-24T15:50:15.500Z,7.35
2022-09-24T15:52:49.075Z,8.60
2022-09-24T15:55:21.034Z,8.80
2022-09-24T15:57:49.393Z,6.93
2022-09-24T16:00:19.937Z,6.97
2022-09-24T16:02:52.326Z,8.70
2022-09-24T16:05:21.308Z,9.63
2022-09-24T16:07:49.616Z,11.10
2022-09-24T16:10:19.508Z,10.82
2022-09-24T16:12:47.681Z,11.32
2022-09-24T16:15:17.197Z,10.45
2022-09-24T16:17:45.745Z,9.95
2022-09-24T16:20:13.961Z,9.43
2022-09-24T16:22:42.167Z,7.72
2022-09-24T16:25:10.700Z,9.45
2022-09-24T16:27:40.925Z,10.15
2022-09-24T16:30:09.946Z,11.38
2022-09-24T16:32:38.111Z,9.30
2022-09-24T16:35:09.702Z,9.50
2022-09-24T16:37:38.040Z,11.13
2022-09-24T16:40:07.230Z,51.42
2022-09-24T16:42:35.980Z,87.13
2022-09-24T16:45:07.164Z,127.10
2022-09-24T16:47:35.538Z,190.40
2022-09-24T16:50:03.819Z,199.73
2022-09-24T16:52:32.834Z,180.27
2022-09-24T16:55:01.097Z,269.55
2022-09-24T16:57:29.256Z,217.10
2022-09-24T16:59:57.739Z,168.18
2022-09-24T17:02:27.461Z,128.63
2022-09-24T17:04:59.431Z,146.35
2022-09-24T17:07:31.666Z,186.63
2022-09-24T17:10:15.505Z,239.23
2022-09-24T17:12:45.663Z,215.32
2022-09-24T17:15:14.938Z,170.52
2022-09-24T17:17:49.967Z,190.20
2022-09-24T17:20:19.751Z,201.98
2022-09-24T17:22:49.800Z,184.65
2022-09-24T17:25:18.583Z,148.82
2022-09-24T17:27:46.877Z,125.85
2022-09-24T17:30:16.433Z,108.93
2022-09-24T17:32:46.316Z,102.95
2022-09-24T17:35:14.835Z,94.60
2022-09-24T17:37:44.253Z,99.18
2022-09-24T17:40:12.888Z,89.47
2022-09-24T17:42:45.867Z,90.10
2022-09-24T17:45:14.491Z,96.15
2022-09-24T17:47:57.558Z,97.18
2022-09-24T17:50:28.660Z,70.32
2022-09-24T17:52:58.606Z,65.50
2022-09-24T17:55:27.590Z,53.35
2022-09-24T17:57:56.042Z,46.83
2022-09-24T18:00:24.593Z,44.70
2022-09-24T18:02:55.875Z,40.00
2022-09-24T18:05:24.157Z,42.25
2022-09-24T18:07:53.889Z,41.38
2022-09-24T18:10:22.399Z,39.45
2022-09-24T18:12:50.882Z,38.42
2022-09-24T18:15:19.305Z,40.95
2022-09-24T18:17:47.590Z,38.97
2022-09-24T18:20:16.853Z,39.10
2022-09-24T18:22:45.022Z,37.58
2022-09-24T18:25:14.993Z,36.97
2022-09-24T18:27:44.052Z,36.30
2022-09-24T18:30:13.369Z,32.20
2022-09-24T18:32:45.616Z,31.08
2022-09-24T18:35:17.145Z,30.65
2022-09-24T18:37:45.417Z,32.63
2022-09-24T18:40:15.134Z,32.67
2022-09-24T18:42:43.457Z,31.90
2022-09-24T18:45:12.691Z,30.60
2022-09-24T18:47:40.931Z,28.15
2022-09-24T18:50:10.271Z,27.23
2022-09-24T18:52:38.492Z,25.63
2022-09-24T18:55:07.749Z,26.23
2022-09-24T18:57:38.416Z,25.92
2022-09-24T19:00:28.407Z,25.25
2022-09-24T19:02:57.013Z,28.15
2022-09-24T19:05:25.464Z,24.40
2022-09-24T19:07:54.162Z,26.85
2022-09-24T19:10:22.702Z,23.65
2022-09-24T19:12:55.684Z,23.42
2022-09-24T19:15:25.348Z,24.75
2022-09-24T19:17:54.131Z,23.05
2022-09-24T19:20:22.770Z,23.63
2022-09-24T19:22:59.947Z,23.65
2022-09-24T19:25:28.705Z,21.13
2022-09-24T19:27:59.357Z,22.85
2022-09-24T19:30:28.680Z,23.00
2022-09-24T19:32:57.733Z,22.40
2022-09-24T19:35:26.901Z,22.40
2022-09-24T19:37:55.096Z,22.80
2022-09-24T19:40:23.570Z,26.42
2022-09-24T19:42:51.989Z,24.05
2022-09-24T19:45:21.899Z,23.40
2022-09-24T19:47:52.056Z,23.30
2022-09-24T19:50:20.479Z,21.50
2022-09-24T19:52:48.763Z,22.02
2022-09-24T19:55:17.169Z,22.08
2022-09-24T19:57:45.421Z,39.70
2022-09-24T20:00:14.712Z,78.53
2022-09-24T20:02:44.542Z,138.32
2022-09-24T20:05:12.896Z,149.55
2022-09-24T20:07:42.086Z,237.57
2022-09-24T20:10:11.300Z,207.27
2022-09-24T20:12:42.792Z,168.32
2022-09-24T20:17:40.151Z,124.10
2022-09-24T20:20:10.465Z,126.43
2022-09-24T20:22:38.959Z,119.43
2022-09-24T20:25:08.118Z,226.27
2022-09-24T20:27:55.307Z,225.43
2022-09-24T20:30:23.910Z,256.27
2022-09-24T20:32:52.394Z,234.85
2022-09-24T20:35:21.986Z,207.85
2022-09-24T20:37:50.333Z,170.02
2022-09-24T20:40:18.750Z,144.98
2022-09-24T20:42:47.065Z,219.07
2022-09-24T20:45:16.112Z,199.82
2022-09-24T20:47:44.531Z,210.68
2022-09-24T20:50:12.679Z,209.13
2022-09-24T20:52:42.324Z,202.55
2022-09-24T20:55:12.542Z,242.10
2022-09-24T20:57:42.412Z,205.80
2022-09-24T21:00:14.069Z,172.68
2022-09-24T21:05:11.108Z,146.45
2022-09-24T21:07:42.707Z,186.73
2022-09-24T21:12:40.590Z,272.20
2022-09-24T21:15:11.382Z,374.90
2022-09-24T21:17:39.691Z,314.33
2022-09-24T21:20:10.144Z,239.43
2022-09-24T21:22:38.709Z,192.98
2022-09-24T21:25:09.475Z,203.43
2022-09-24T21:27:37.937Z,168.03
2022-09-24T21:30:07.435Z,158.13
2022-09-24T21:32:35.763Z,158.20
2022-09-24T21:35:04.130Z,137.27
2022-09-24T21:37:34.049Z,113.88
2022-09-24T21:40:02.697Z,99.65
2022-09-24T21:42:34.508Z,105.50
2022-09-24T21:45:02.694Z,98.47
2022-09-24T21:47:30.868Z,98.05
2022-09-24T21:49:59.374Z,84.95
2022-09-24T21:52:30.980Z,81.55
2022-09-24T21:57:27.409Z,71.43
2022-09-24T22:00:09.941Z,69.65
2022-09-24T22:02:43.179Z,63.30
2022-09-24T22:05:11.918Z,59.63
2022-09-24T22:07:40.769Z,56.97
2022-09-24T22:10:10.330Z,49.08
2022-09-24T22:12:39.072Z,46.53
2022-09-24T22:15:09.751Z,45.00
2022-09-24T22:17:38.008Z,40.55
2022-09-24T22:20:07.473Z,41.05
2022-09-24T22:22:35.724Z,38.08
2022-09-24T22:25:03.925Z,32.53
2022-09-24T22:27:32.615Z,26.42
2022-09-24T22:30:00.828Z,26.30
2022-09-24T22:32:31.341Z,23.67
2022-09-24T22:35:17.406Z,24.20
2022-09-24T22:37:46.482Z,22.55
2022-09-24T22:40:15.337Z,21.27
2022-09-24T22:42:43.754Z,21.05
2022-09-24T22:45:13.203Z,18.85
2022-09-24T22:47:42.866Z,18.33
2022-09-24T22:50:11.431Z,17.60
2022-09-24T22:52:39.619Z,17.13
2022-09-24T22:55:08.649Z,16.65
2022-09-24T22:57:36.817Z,15.30
2022-09-24T23:00:06.765Z,14.80
2022-09-24T23:02:35.605Z,13.85
2022-09-24T23:05:06.314Z,14.00
2022-09-24T23:07:34.674Z,12.90
2022-09-24T23:10:02.970Z,14.30
2022-09-24T23:12:32.870Z,15.82
2022-09-24T23:15:01.358Z,14.57
2022-09-24T23:17:29.741Z,14.60
2022-09-24T23:19:57.936Z,13.23
2022-09-24T23:22:27.558Z,15.65
2022-09-24T23:24:56.521Z,12.95
2022-09-24T23:27:25.198Z,11.70
2022-09-24T23:29:54.102Z,12.20
2022-09-24T23:32:22.319Z,13.10
2022-09-24T23:34:50.521Z,11.02
2022-09-24T23:37:18.769Z,12.15
2022-09-24T23:39:48.352Z,12.63
2022-09-24T23:42:16.549Z,13.05
2022-09-24T23:44:45.417Z,12.18
2022-09-24T23:47:14.159Z,11.95
2022-09-24T23:49:42.385Z,11.70
2022-09-24T23:52:11.012Z,11.68
2022-09-24T23:54:40.383Z,12.40
2022-09-24T23:57:11.420Z,12.02
2022-09-24T23:59:39.660Z,12.52
